createdAt,value
2018-09-14T00:00:40.674Z,100.00
2018-09-14T00:03:09.685Z,100.00
2018-09-14T00:05:38.950Z,100.00
2018-09-14T00:08:07.900Z,100.00
2018-09-14T00:10:37.140Z,100.00
2018-09-14T00:13:06.125Z,100.00
2018-09-14T00:15:35.299Z,100.00
2018-09-14T00:18:04.428Z,100.00
2018-09-14T00:20:33.451Z,100.00
2018-09-14T00:23:02.392Z,100.00
2018-09-14T00:25:31.460Z,100.00
2018-09-14T00:28:00.961Z,100.00
2018-09-14T00:30:29.923Z,100.00
2018-09-14T00:32:59.141Z,100.00
2018-09-14T00:35:28.521Z,100.00
2018-09-14T00:37:57.937Z,100.00
2018-09-14T00:40:26.879Z,100.00
2018-09-14T00:42:56.012Z,100.00
2018-09-14T00:45:25.264Z,100.00
2018-09-14T00:47:54.244Z,100.00
2018-09-14T00:50:23.350Z,100.00
2018-09-14T00:52:52.341Z,100.00
2018-09-14T00:55:21.530Z,100.00
2018-09-14T00:57:51.160Z,100.00
2018-09-14T01:00:20.215Z,100.00
2018-09-14T01:02:49.343Z,100.00
2018-09-14T01:05:18.414Z,100.00
2018-09-14T01:07:47.380Z,100.00
2018-09-14T01:10:16.375Z,100.00
2018-09-14T01:12:45.391Z,100.00
2018-09-14T01:15:14.290Z,100.00
2018-09-14T01:17:43.360Z,100.00
2018-09-14T01:20:12.446Z,100.00
2018-09-14T01:22:41.735Z,100.00
2018-09-14T01:25:10.904Z,100.00
2018-09-14T01:27:40.030Z,100.00
2018-09-14T01:30:09.382Z,100.00
2018-09-14T01:32:38.794Z,100.00
2018-09-14T01:35:13.013Z,100.00
2018-09-14T01:37:42.300Z,100.00
2018-09-14T01:40:11.636Z,100.00
2018-09-14T01:42:40.536Z,100.00
2018-09-14T01:45:09.885Z,100.00
2018-09-14T01:47:39.070Z,100.00
2018-09-14T01:50:08.369Z,100.00
2018-09-14T01:52:37.452Z,100.00
2018-09-14T01:55:07.032Z,100.00
2018-09-14T01:57:36.321Z,100.00
2018-09-14T02:00:06.114Z,100.00
2018-09-14T02:02:35.337Z,100.00
2018-09-14T02:05:04.300Z,100.00
2018-09-14T02:07:33.324Z,100.00
2018-09-14T02:10:02.260Z,100.00
2018-09-14T02:12:31.298Z,100.00
2018-09-14T02:15:00.235Z,100.00
2018-09-14T02:17:29.352Z,100.00
2018-09-14T02:19:58.433Z,100.00
2018-09-14T02:22:27.563Z,100.00
2018-09-14T02:24:56.523Z,100.00
2018-09-14T02:27:25.541Z,100.00
2018-09-14T02:29:54.504Z,100.00
2018-09-14T02:32:23.493Z,100.00
2018-09-14T02:34:52.588Z,100.00
2018-09-14T02:37:21.781Z,100.00
2018-09-14T02:39:50.912Z,100.00
2018-09-14T02:42:19.970Z,100.00
2018-09-14T02:44:49.140Z,100.00
2018-09-14T02:47:18.124Z,100.00
2018-09-14T02:49:47.162Z,100.00
2018-09-14T02:52:16.345Z,100.00
2018-09-14T02:54:45.772Z,100.00
2018-09-14T02:57:15.090Z,100.00
2018-09-14T02:59:44.348Z,100.00
2018-09-14T03:02:13.740Z,100.00
2018-09-14T03:04:42.738Z,100.00
2018-09-14T03:07:11.921Z,100.00
2018-09-14T03:09:41.228Z,100.00
2018-09-14T03:12:10.387Z,100.00
2018-09-14T03:14:39.603Z,100.00
2018-09-14T03:17:08.736Z,100.00
2018-09-14T03:19:37.772Z,100.00
2018-09-14T03:22:06.983Z,100.00
2018-09-14T03:24:36.179Z,100.00
2018-09-14T03:27:05.663Z,100.00
2018-09-14T03:29:34.720Z,100.00
2018-09-14T03:32:04.037Z,100.00
2018-09-14T03:34:33.343Z,100.00
2018-09-14T03:37:02.681Z,100.00
2018-09-14T03:39:32.016Z,100.00
2018-09-14T03:42:01.444Z,100.00
2018-09-14T03:44:30.713Z,100.00
2018-09-14T03:46:59.855Z,100.00
2018-09-14T03:49:29.156Z,100.00
2018-09-14T03:51:58.465Z,100.00
2018-09-14T03:54:27.484Z,100.00
2018-09-14T03:56:56.589Z,100.00
2018-09-14T03:59:25.546Z,100.00
2018-09-14T04:01:54.676Z,100.00
2018-09-14T04:04:24.216Z,100.00
2018-09-14T04:06:53.667Z,100.00
2018-09-14T04:09:22.858Z,100.00
2018-09-14T04:11:52.145Z,100.00
2018-09-14T04:14:21.387Z,100.00
2018-09-14T04:16:50.775Z,100.00
2018-09-14T04:19:20.154Z,100.00
2018-09-14T04:21:49.428Z,100.00
2018-09-14T04:24:18.802Z,100.00
2018-09-14T04:26:47.868Z,100.00
2018-09-14T04:29:17.193Z,100.00
2018-09-14T04:31:46.431Z,100.00
2018-09-14T04:34:15.452Z,100.00
2018-09-14T04:36:44.724Z,100.00
2018-09-14T04:39:13.661Z,100.00
2018-09-14T04:41:42.564Z,100.00
2018-09-14T04:44:11.774Z,100.00
2018-09-14T04:46:40.720Z,100.00
2018-09-14T04:49:09.906Z,100.00
2018-09-14T04:51:38.903Z,100.00
2018-09-14T04:54:07.945Z,100.00
2018-09-14T04:56:36.998Z,100.00
2018-09-14T04:59:06.095Z,100.00
2018-09-14T05:01:35.134Z,100.00
2018-09-14T05:04:04.281Z,100.00
2018-09-14T05:06:33.275Z,100.00
2018-09-14T05:09:02.288Z,100.00
2018-09-14T05:11:31.296Z,100.00
2018-09-14T05:14:00.397Z,100.00
2018-09-14T05:16:29.376Z,100.00
2018-09-14T05:18:58.415Z,100.00
2018-09-14T05:21:27.551Z,100.00
2018-09-14T05:23:56.753Z,100.00
2018-09-14T05:26:26.012Z,100.00
2018-09-14T05:28:55.348Z,100.00
2018-09-14T05:31:24.509Z,100.00
2018-09-14T05:33:53.576Z,100.00
2018-09-14T05:36:22.571Z,100.00
2018-09-14T05:38:51.491Z,99.87
2018-09-14T05:41:20.814Z,95.71
2018-09-14T05:43:50.065Z,95.31
2018-09-14T05:46:19.077Z,94.08
2018-09-14T05:48:48.004Z,92.31
2018-09-14T05:51:17.523Z,91.09
2018-09-14T05:53:46.500Z,90.90
2018-09-14T05:56:15.568Z,89.18
2018-09-14T05:58:44.863Z,87.72
2018-09-14T06:01:14.058Z,87.97
2018-09-14T06:03:43.196Z,87.77
2018-09-14T06:06:12.188Z,86.82
2018-09-14T06:08:41.079Z,86.36
2018-09-14T06:11:10.199Z,84.67
2018-09-14T06:13:39.127Z,83.73
2018-09-14T06:16:08.511Z,84.61
2018-09-14T06:18:37.881Z,83.16
2018-09-14T06:21:06.892Z,83.26
2018-09-14T06:23:35.831Z,82.62
2018-09-14T06:26:04.817Z,81.45
2018-09-14T06:28:33.856Z,77.57
2018-09-14T06:31:02.836Z,78.01
2018-09-14T06:33:32.109Z,76.90
2018-09-14T06:36:01.031Z,75.57
2018-09-14T06:38:30.164Z,78.16
2018-09-14T06:40:59.566Z,74.25
2018-09-14T06:43:28.491Z,80.20
2018-09-14T06:45:57.404Z,80.66
2018-09-14T06:48:26.303Z,80.47
2018-09-14T06:50:55.276Z,79.56
2018-09-14T06:53:24.311Z,76.64
2018-09-14T06:55:53.337Z,67.54
2018-09-14T06:58:22.336Z,66.75
2018-09-14T07:00:51.212Z,65.39
2018-09-14T07:03:20.987Z,68.84
2018-09-14T07:05:49.859Z,67.05
2018-09-14T07:08:19.836Z,66.92
2018-09-14T07:10:48.931Z,65.05
2018-09-14T07:13:18.511Z,63.11
2018-09-14T07:15:47.861Z,65.05
2018-09-14T07:18:17.644Z,66.24
2018-09-14T07:20:47.184Z,64.46
2018-09-14T07:23:16.375Z,63.33
2018-09-14T07:25:45.840Z,65.09
2018-09-14T07:28:14.769Z,63.92
2018-09-14T07:30:43.858Z,62.96
2018-09-14T07:33:12.941Z,64.37
2018-09-14T07:35:41.761Z,62.86
2018-09-14T07:38:10.826Z,61.48
2018-09-14T07:40:39.815Z,61.83
2018-09-14T07:43:08.864Z,61.53
2018-09-14T07:45:37.883Z,60.78
2018-09-14T07:48:06.930Z,60.65
2018-09-14T07:50:36.316Z,59.46
2018-09-14T07:53:05.616Z,57.97
2018-09-14T07:55:34.570Z,59.75
2018-09-14T07:58:03.508Z,57.60
2018-09-14T08:00:32.784Z,57.43
2018-09-14T08:03:01.675Z,56.57
2018-09-14T08:05:30.724Z,55.19
2018-09-14T08:07:59.892Z,55.97
2018-09-14T08:10:28.765Z,56.40
2018-09-14T08:12:57.945Z,55.87
2018-09-14T08:15:26.988Z,57.02
2018-09-14T08:17:56.032Z,58.18
2018-09-14T08:20:25.125Z,58.22
2018-09-14T08:22:54.043Z,57.34
2018-09-14T08:25:23.093Z,58.27
2018-09-14T08:27:52.312Z,57.15
2018-09-14T08:30:21.472Z,56.35
2018-09-14T08:32:50.344Z,55.47
2018-09-14T08:35:19.433Z,55.27
2018-09-14T08:37:48.675Z,55.09
2018-09-14T08:40:17.888Z,55.61
2018-09-14T08:42:46.880Z,55.78
2018-09-14T08:45:15.848Z,55.84
2018-09-14T08:47:44.799Z,55.45
2018-09-14T08:50:13.819Z,55.38
2018-09-14T08:52:42.708Z,56.84
2018-09-14T08:55:11.811Z,55.13
2018-09-14T08:57:41.316Z,55.70
2018-09-14T09:00:10.844Z,56.43
2018-09-14T09:02:40.244Z,56.28
2018-09-14T09:05:09.492Z,56.52
2018-09-14T09:07:38.499Z,56.90
2018-09-14T09:10:07.490Z,59.17
2018-09-14T09:12:36.775Z,56.19
2018-09-14T09:15:05.955Z,56.42
2018-09-14T09:17:35.134Z,56.98
2018-09-14T09:20:04.281Z,57.57
2018-09-14T09:22:33.471Z,56.68
2018-09-14T09:25:02.702Z,56.46
2018-09-14T09:27:31.636Z,57.14
2018-09-14T09:30:00.623Z,55.83
2018-09-14T09:32:29.548Z,55.99
2018-09-14T09:34:58.860Z,55.54
2018-09-14T09:37:27.746Z,56.95
2018-09-14T09:39:57.172Z,56.91
2018-09-14T09:42:26.053Z,57.34
2018-09-14T09:44:55.060Z,58.36
2018-09-14T09:47:24.077Z,57.42
2018-09-14T09:49:53.299Z,56.80
2018-09-14T09:52:22.316Z,55.83
2018-09-14T09:54:51.864Z,53.11
2018-09-14T09:57:21.282Z,55.97
2018-09-14T09:59:50.351Z,56.94
2018-09-14T10:02:24.724Z,55.73
2018-09-14T10:04:59.128Z,55.46
2018-09-14T10:07:28.738Z,53.97
2018-09-14T10:09:57.885Z,56.49
2018-09-14T10:12:26.942Z,54.94
2018-09-14T10:14:55.980Z,54.02
2018-09-14T10:17:25.096Z,54.61
2018-09-14T10:19:54.159Z,55.53
2018-09-14T10:22:23.320Z,53.56
2018-09-14T10:24:52.389Z,53.81
2018-09-14T10:27:21.283Z,52.86
2018-09-14T10:29:50.315Z,53.58
2018-09-14T10:32:19.485Z,52.73
2018-09-14T10:34:48.488Z,54.20
2018-09-14T10:37:17.469Z,54.37
2018-09-14T10:39:46.568Z,52.62
2018-09-14T10:42:15.523Z,53.00
2018-09-14T10:44:44.485Z,50.63
2018-09-14T10:47:13.700Z,50.21
2018-09-14T10:49:43.464Z,50.63
2018-09-14T10:52:12.854Z,49.79
2018-09-14T10:54:41.811Z,48.83
2018-09-14T10:57:10.667Z,47.42
2018-09-14T10:59:39.596Z,48.05
2018-09-14T11:02:08.616Z,50.50
2018-09-14T11:04:37.436Z,50.86
2018-09-14T11:07:06.541Z,52.36
2018-09-14T11:09:35.606Z,51.36
2018-09-14T11:12:04.805Z,51.31
2018-09-14T11:14:33.967Z,48.94
2018-09-14T11:17:03.164Z,48.35
2018-09-14T11:19:32.212Z,47.86
2018-09-14T11:22:01.268Z,50.30
2018-09-14T11:24:30.280Z,48.18
2018-09-14T11:26:59.477Z,48.48
2018-09-14T11:29:28.378Z,48.48
2018-09-14T11:31:57.550Z,46.98
2018-09-14T11:34:27.121Z,46.90
2018-09-14T11:36:55.999Z,48.63
2018-09-14T11:39:24.954Z,49.05
2018-09-14T11:41:53.984Z,48.66
2018-09-14T11:44:23.293Z,49.46
2018-09-14T11:46:52.401Z,50.46
2018-09-14T11:49:21.479Z,48.90
2018-09-14T11:51:50.541Z,50.21
2018-09-14T11:54:19.477Z,48.85
2018-09-14T11:56:48.672Z,48.28
2018-09-14T11:59:17.899Z,48.24
2018-09-14T12:01:46.922Z,47.14
2018-09-14T12:04:15.993Z,49.00
2018-09-14T12:06:44.988Z,49.24
2018-09-14T12:09:13.864Z,48.91
2018-09-14T12:11:42.954Z,48.74
2018-09-14T12:14:12.355Z,48.90
2018-09-14T12:16:41.409Z,50.05
2018-09-14T12:19:10.496Z,49.97
2018-09-14T12:21:39.379Z,50.07
2018-09-14T12:24:08.380Z,50.56
2018-09-14T12:26:37.492Z,50.17
2018-09-14T12:29:06.876Z,48.59
2018-09-14T12:31:35.781Z,49.04
2018-09-14T12:34:05.116Z,48.80
2018-09-14T12:36:34.185Z,47.99
2018-09-14T12:39:03.351Z,47.69
2018-09-14T12:41:32.537Z,46.63
2018-09-14T12:44:01.391Z,45.50
2018-09-14T12:46:30.345Z,45.00
2018-09-14T12:48:59.664Z,46.53
2018-09-14T12:51:29.900Z,46.98
2018-09-14T12:53:58.735Z,47.42
2018-09-14T12:56:27.924Z,46.69
2018-09-14T12:58:56.824Z,46.24
2018-09-14T13:01:26.524Z,46.34
2018-09-14T13:03:55.472Z,45.89
2018-09-14T13:06:25.107Z,47.22
2018-09-14T13:08:54.059Z,45.95
2018-09-14T13:11:22.971Z,46.00
2018-09-14T13:13:52.301Z,45.95
2018-09-14T13:16:21.255Z,47.13
2018-09-14T13:18:50.428Z,46.47
2018-09-14T13:21:19.721Z,46.31
2018-09-14T13:23:48.736Z,44.02
2018-09-14T13:26:17.704Z,43.60
2018-09-14T13:28:47.029Z,45.43
2018-09-14T13:31:15.859Z,43.88
2018-09-14T13:33:44.918Z,43.05
2018-09-14T13:36:13.891Z,44.17
2018-09-14T13:38:42.831Z,44.98
2018-09-14T13:41:11.816Z,46.02
2018-09-14T13:43:40.707Z,43.55
2018-09-14T13:46:09.706Z,43.09
2018-09-14T13:48:38.560Z,43.91
2018-09-14T13:51:07.043Z,43.95
2018-09-14T13:53:36.381Z,43.75
2018-09-14T13:56:05.309Z,44.02
2018-09-14T13:58:34.662Z,42.71
2018-09-14T14:01:03.795Z,40.09
2018-09-14T14:03:32.628Z,38.40
2018-09-14T14:06:01.579Z,37.51
2018-09-14T14:08:31.076Z,36.17
2018-09-14T14:11:00.065Z,37.71
2018-09-14T14:13:29.082Z,36.28
2018-09-14T14:15:58.076Z,36.89
2018-09-14T14:18:27.288Z,36.80
2018-09-14T14:20:56.244Z,36.86
2018-09-14T14:23:25.275Z,38.14
2018-09-14T14:25:54.584Z,39.16
2018-09-14T14:28:23.777Z,43.84
2018-09-14T14:30:53.056Z,51.34
2018-09-14T14:33:22.063Z,56.44
2018-09-14T14:35:51.036Z,57.49
2018-09-14T14:38:20.456Z,61.72
2018-09-14T14:40:49.495Z,63.34
2018-09-14T14:43:18.767Z,65.41
2018-09-14T14:45:48.023Z,66.17
2018-09-14T14:48:17.351Z,66.43
2018-09-14T14:50:46.512Z,66.49
2018-09-14T14:53:15.960Z,66.05
2018-09-14T14:55:44.883Z,67.28
2018-09-14T14:58:13.871Z,67.58
2018-09-14T15:00:42.888Z,68.76
2018-09-14T15:03:11.952Z,69.57
2018-09-14T15:05:40.859Z,69.18
2018-09-14T15:08:09.683Z,70.29
2018-09-14T15:10:38.743Z,69.74
2018-09-14T15:13:07.758Z,70.24
2018-09-14T15:15:37.109Z,73.28
2018-09-14T15:18:06.363Z,74.25
2018-09-14T15:20:35.321Z,73.88
2018-09-14T15:23:04.511Z,72.45
2018-09-14T15:25:33.397Z,71.10
2018-09-14T15:28:02.376Z,71.42
2018-09-14T15:30:31.440Z,70.56
2018-09-14T15:33:00.412Z,71.86
2018-09-14T15:35:29.415Z,71.37
2018-09-14T15:37:58.375Z,71.56
2018-09-14T15:40:27.509Z,71.67
2018-09-14T15:42:56.580Z,71.00
2018-09-14T15:45:25.623Z,71.39
2018-09-14T15:47:54.580Z,70.50
2018-09-14T15:50:23.605Z,71.41
2018-09-14T15:52:52.459Z,69.96
2018-09-14T15:55:21.503Z,69.75
2018-09-14T15:57:50.543Z,67.86
2018-09-14T16:00:22.077Z,68.10
2018-09-14T16:02:52.463Z,68.40
2018-09-14T16:05:21.539Z,67.12
2018-09-14T16:07:50.636Z,64.70
2018-09-14T16:10:19.680Z,64.19
2018-09-14T16:12:48.528Z,64.59
2018-09-14T16:15:17.447Z,63.28
2018-09-14T16:17:46.537Z,63.09
2018-09-14T16:20:15.528Z,63.02
2018-09-14T16:22:44.505Z,64.38
2018-09-14T16:25:13.419Z,64.79
2018-09-14T16:27:42.741Z,63.72
2018-09-14T16:30:12.017Z,65.58
2018-09-14T16:32:40.907Z,64.27
2018-09-14T16:35:10.182Z,64.94
2018-09-14T16:37:39.400Z,65.41
2018-09-14T16:40:08.660Z,64.89
2018-09-14T16:42:37.487Z,65.44
2018-09-14T16:45:06.608Z,65.33
2018-09-14T16:47:35.688Z,65.72
2018-09-14T16:50:04.596Z,65.57
2018-09-14T16:52:33.517Z,64.44
2018-09-14T16:55:02.534Z,64.92
2018-09-14T16:57:31.499Z,62.46
2018-09-14T17:00:00.336Z,63.08
2018-09-14T17:02:29.399Z,64.73
2018-09-14T17:04:58.408Z,65.36
2018-09-14T17:07:27.258Z,65.08
2018-09-14T17:09:56.337Z,65.76
2018-09-14T17:12:25.236Z,66.23
2018-09-14T17:14:54.250Z,66.06
2018-09-14T17:17:23.132Z,67.74
2018-09-14T17:19:52.306Z,68.24
2018-09-14T17:22:21.560Z,67.83
2018-09-14T17:24:50.525Z,67.14
2018-09-14T17:27:19.423Z,67.12
2018-09-14T17:29:48.569Z,67.40
2018-09-14T17:32:17.576Z,66.48
2018-09-14T17:34:46.641Z,67.58
2018-09-14T17:37:15.612Z,67.99
2018-09-14T17:39:44.641Z,67.62
2018-09-14T17:42:13.636Z,67.50
2018-09-14T17:44:42.554Z,64.74
2018-09-14T17:47:11.504Z,66.32
2018-09-14T17:49:40.594Z,66.41
2018-09-14T17:52:10.048Z,66.96
2018-09-14T17:54:39.052Z,66.88
2018-09-14T17:57:08.148Z,66.98
2018-09-14T17:59:37.096Z,67.32
2018-09-14T18:02:06.078Z,67.39
2018-09-14T18:04:35.132Z,67.19
2018-09-14T18:07:04.016Z,69.04
2018-09-14T18:09:33.052Z,71.82
2018-09-14T18:12:01.897Z,72.23
2018-09-14T18:14:30.787Z,74.40
2018-09-14T18:17:01.046Z,74.56
2018-09-14T18:19:29.969Z,77.76
2018-09-14T18:21:58.964Z,80.16
2018-09-14T18:24:27.980Z,80.95
2018-09-14T18:26:56.962Z,81.35
2018-09-14T18:29:25.948Z,82.36
2018-09-14T18:31:55.207Z,82.61
2018-09-14T18:34:24.116Z,82.32
2018-09-14T18:36:53.180Z,82.71
2018-09-14T18:39:22.060Z,83.13
2018-09-14T18:41:50.959Z,83.09
2018-09-14T18:44:19.839Z,83.71
2018-09-14T18:46:48.690Z,86.63
2018-09-14T18:49:17.727Z,88.79
2018-09-14T18:51:46.712Z,90.11
2018-09-14T18:54:15.811Z,91.06
2018-09-14T18:56:44.892Z,90.51
2018-09-14T18:59:13.747Z,89.85
2018-09-14T19:01:43.192Z,89.01
2018-09-14T19:04:12.124Z,89.77
2018-09-14T19:06:41.281Z,90.33
2018-09-14T19:09:11.934Z,91.51
2018-09-14T19:11:41.167Z,88.15
2018-09-14T19:14:10.483Z,91.30
2018-09-14T19:16:39.592Z,90.88
2018-09-14T19:19:08.597Z,91.28
2018-09-14T19:21:37.735Z,92.44
2018-09-14T19:24:06.959Z,93.21
2018-09-14T19:26:36.274Z,94.31
2018-09-14T19:29:05.109Z,94.87
2018-09-14T19:31:34.667Z,95.55
2018-09-14T19:34:04.012Z,95.61
2018-09-14T19:36:33.100Z,95.49
2018-09-14T19:39:02.500Z,95.65
2018-09-14T19:41:31.584Z,95.63
2018-09-14T19:44:01.144Z,95.80
2018-09-14T19:46:30.133Z,95.60
2018-09-14T19:48:59.744Z,95.44
2018-09-14T19:51:28.765Z,96.06
2018-09-14T19:53:57.798Z,95.25
2018-09-14T19:56:26.993Z,93.99
2018-09-14T19:58:55.839Z,94.26
2018-09-14T20:01:24.913Z,92.93
2018-09-14T20:03:54.180Z,92.83
2018-09-14T20:06:23.432Z,94.45
2018-09-14T20:08:52.892Z,96.13
2018-09-14T20:11:22.076Z,96.28
2018-09-14T20:13:51.402Z,96.28
2018-09-14T20:16:20.444Z,94.29
2018-09-14T20:18:49.740Z,94.33
2018-09-14T20:21:18.844Z,94.41
2018-09-14T20:23:47.782Z,95.46
2018-09-14T20:26:17.013Z,95.68
2018-09-14T20:28:46.175Z,95.61
2018-09-14T20:31:15.179Z,94.64
2018-09-14T20:33:44.519Z,96.31
2018-09-14T20:36:13.580Z,96.14
2018-09-14T20:38:42.554Z,95.88
2018-09-14T20:41:11.771Z,94.68
2018-09-14T20:43:40.656Z,94.68
2018-09-14T20:46:10.292Z,94.11
2018-09-14T20:48:39.641Z,93.75
2018-09-14T20:51:09.088Z,92.49
2018-09-14T20:53:38.568Z,90.66
2018-09-14T20:56:08.040Z,91.34
2018-09-14T20:58:37.240Z,90.44
2018-09-14T21:01:06.211Z,90.18
2018-09-14T21:03:35.328Z,90.45
2018-09-14T21:06:04.728Z,90.97
2018-09-14T21:08:34.105Z,91.68
2018-09-14T21:11:03.260Z,93.31
2018-09-14T21:13:32.456Z,94.02
2018-09-14T21:16:01.324Z,95.84
2018-09-14T21:18:30.240Z,95.48
2018-09-14T21:20:59.206Z,95.73
2018-09-14T21:23:28.554Z,95.73
2018-09-14T21:25:57.521Z,95.93
2018-09-14T21:28:26.504Z,96.79
2018-09-14T21:30:55.688Z,96.47
2018-09-14T21:33:24.884Z,96.63
2018-09-14T21:35:54.728Z,96.81
2018-09-14T21:38:23.683Z,95.57
2018-09-14T21:40:52.624Z,95.61
2018-09-14T21:43:21.841Z,95.67
2018-09-14T21:45:51.196Z,94.85
2018-09-14T21:48:20.157Z,94.59
2018-09-14T21:50:49.168Z,95.23
2018-09-14T21:53:18.375Z,95.83
2018-09-14T21:55:47.376Z,97.72
2018-09-14T21:58:16.321Z,98.92
2018-09-14T22:00:50.209Z,99.09
2018-09-14T22:03:19.088Z,98.96
2018-09-14T22:05:48.400Z,97.50
2018-09-14T22:08:17.372Z,96.90
2018-09-14T22:10:46.316Z,96.66
2018-09-14T22:13:15.223Z,97.16
2018-09-14T22:15:44.513Z,97.34
2018-09-14T22:18:13.692Z,96.44
2018-09-14T22:20:43.049Z,95.67
2018-09-14T22:23:12.061Z,96.56
2018-09-14T22:25:41.102Z,96.86
2018-09-14T22:28:10.959Z,96.17
2018-09-14T22:30:40.133Z,95.94
2018-09-14T22:33:09.227Z,95.52
2018-09-14T22:35:38.324Z,95.44
2018-09-14T22:38:07.752Z,95.98
2018-09-14T22:40:36.664Z,96.01
2018-09-14T22:43:05.763Z,96.33
2018-09-14T22:45:34.726Z,96.14
2018-09-14T22:48:03.684Z,95.86
2018-09-14T22:50:32.875Z,95.96
2018-09-14T22:53:02.215Z,95.56
2018-09-14T22:55:31.162Z,95.89
2018-09-14T22:58:00.260Z,96.10
2018-09-14T23:00:34.473Z,97.03
2018-09-14T23:03:03.732Z,97.42
2018-09-14T23:05:32.911Z,97.12
2018-09-14T23:08:02.096Z,97.20
2018-09-14T23:10:31.108Z,97.45
2018-09-14T23:13:00.063Z,97.76
2018-09-14T23:15:29.216Z,97.86
2018-09-14T23:17:59.193Z,98.47
2018-09-14T23:20:28.823Z,98.71
2018-09-14T23:22:57.952Z,98.25
2018-09-14T23:25:27.224Z,97.79
2018-09-14T23:27:56.456Z,97.69
2018-09-14T23:30:25.312Z,96.70
2018-09-14T23:32:54.346Z,95.99
2018-09-14T23:35:23.315Z,95.42
2018-09-14T23:37:52.255Z,95.32
2018-09-14T23:40:21.091Z,94.98
2018-09-14T23:42:49.923Z,95.39
2018-09-14T23:45:19.019Z,94.80
2018-09-14T23:47:48.104Z,94.00
2018-09-14T23:50:16.992Z,93.99
2018-09-14T23:52:46.265Z,94.02
2018-09-14T23:55:15.227Z,94.16
2018-09-14T23:57:44.547Z,95.04
